createdAt,value
2019-03-18T00:01:07.451Z,81.00
2019-03-18T00:03:42.464Z,80.50
2019-03-18T00:06:17.481Z,80.50
2019-03-18T00:08:52.497Z,80.40
2019-03-18T00:11:27.902Z,80.30
2019-03-18T00:14:03.237Z,80.20
2019-03-18T00:16:38.272Z,80.10
2019-03-18T00:19:13.279Z,80.20
2019-03-18T00:21:48.876Z,80.30
2019-03-18T00:24:23.896Z,80.20
2019-03-18T00:26:59.251Z,80.10
2019-03-18T00:29:34.307Z,80.20
2019-03-18T00:32:09.786Z,80.50
2019-03-18T00:34:48.780Z,81.20
2019-03-18T00:37:24.090Z,81.90
2019-03-18T00:39:59.119Z,82.00
2019-03-18T00:42:34.132Z,82.30
2019-03-18T00:45:15.290Z,82.70
2019-03-18T00:47:46.646Z,83.10
2019-03-18T00:50:21.943Z,83.60
2019-03-18T00:52:56.968Z,83.70
2019-03-18T00:55:32.034Z,83.70
2019-03-18T00:58:07.437Z,83.80
2019-03-18T01:00:43.429Z,84.20
2019-03-18T01:03:18.446Z,84.30
2019-03-18T01:05:53.476Z,84.50
2019-03-18T01:08:30.121Z,84.80
2019-03-18T01:11:06.303Z,84.80
2019-03-18T01:13:43.367Z,84.60
2019-03-18T01:16:18.643Z,84.60
2019-03-18T01:18:53.686Z,84.60
2019-03-18T01:21:28.702Z,84.60
2019-03-18T01:24:03.979Z,84.40
2019-03-18T01:26:38.980Z,84.10
2019-03-18T01:29:14.009Z,84.30
2019-03-18T01:31:50.632Z,84.20
2019-03-18T01:34:26.942Z,84.40
2019-03-18T01:37:01.945Z,84.20
2019-03-18T01:39:37.322Z,84.30
2019-03-18T01:42:12.407Z,84.50
2019-03-18T01:44:49.798Z,84.40
2019-03-18T01:47:24.816Z,84.60
2019-03-18T01:49:59.858Z,84.60
2019-03-18T01:52:35.158Z,84.80
2019-03-18T01:55:12.857Z,84.80
2019-03-18T01:57:49.518Z,84.70
2019-03-18T02:00:24.889Z,84.80
2019-03-18T02:02:59.933Z,84.80
2019-03-18T02:05:34.953Z,84.90
2019-03-18T02:08:09.991Z,84.90
2019-03-18T02:10:45.009Z,84.90
2019-03-18T02:13:22.368Z,84.90
2019-03-18T02:15:57.391Z,84.70
2019-03-18T02:18:32.677Z,84.70
2019-03-18T02:21:07.713Z,84.90
2019-03-18T02:23:43.627Z,84.80
2019-03-18T02:26:19.601Z,84.90
2019-03-18T02:28:54.969Z,84.90
2019-03-18T02:31:29.990Z,85.00
2019-03-18T02:34:05.035Z,84.60
2019-03-18T02:36:40.051Z,85.20
2019-03-18T02:39:15.098Z,84.40
2019-03-18T02:41:51.032Z,84.30
2019-03-18T02:44:26.056Z,84.40
2019-03-18T02:47:01.350Z,84.20
2019-03-18T02:49:36.418Z,84.20
2019-03-18T02:52:11.430Z,84.20
2019-03-18T02:54:48.103Z,84.20
2019-03-18T02:57:23.164Z,84.30
2019-03-18T02:59:58.196Z,84.40
2019-03-18T03:02:33.289Z,84.40
2019-03-18T03:05:09.853Z,84.40
2019-03-18T03:07:45.211Z,84.40
2019-03-18T03:10:20.329Z,83.90
2019-03-18T03:12:56.715Z,83.90
2019-03-18T03:15:32.065Z,83.90
2019-03-18T03:18:07.187Z,83.80
2019-03-18T03:20:42.198Z,83.70
2019-03-18T03:23:17.227Z,83.70
2019-03-18T03:25:52.247Z,83.30
2019-03-18T03:28:27.284Z,83.20
2019-03-18T03:31:02.546Z,83.20
2019-03-18T03:33:37.737Z,83.10
2019-03-18T03:36:12.835Z,83.20
2019-03-18T03:38:50.654Z,83.20
2019-03-18T03:41:25.771Z,83.20
2019-03-18T03:44:01.490Z,83.10
2019-03-18T03:46:42.859Z,83.00
2019-03-18T03:49:13.988Z,83.10
2019-03-18T03:51:50.280Z,83.20
2019-03-18T03:54:25.752Z,83.20
2019-03-18T03:57:01.126Z,83.40
2019-03-18T03:59:36.696Z,83.20
2019-03-18T04:02:11.797Z,83.00
2019-03-18T04:04:49.390Z,83.00
2019-03-18T04:07:25.047Z,82.90
2019-03-18T04:10:01.034Z,82.50
2019-03-18T04:12:36.048Z,82.30
2019-03-18T04:15:13.156Z,82.30
2019-03-18T04:17:48.674Z,82.00
2019-03-18T04:20:24.125Z,81.60
2019-03-18T04:23:00.048Z,81.40
2019-03-18T04:25:35.444Z,81.50
2019-03-18T04:28:10.528Z,81.20
2019-03-18T04:30:45.910Z,81.20
2019-03-18T04:33:21.755Z,81.00
2019-03-18T04:35:56.782Z,81.30
2019-03-18T04:38:32.677Z,81.50
2019-03-18T04:41:07.995Z,81.50
2019-03-18T04:43:43.006Z,81.30
2019-03-18T04:46:18.109Z,81.00
2019-03-18T04:48:53.398Z,81.00
2019-03-18T04:51:28.532Z,80.50
2019-03-18T04:54:03.563Z,80.10
2019-03-18T04:56:38.658Z,80.00
2019-03-18T04:59:13.681Z,79.70
2019-03-18T05:01:48.723Z,79.70
2019-03-18T05:04:23.828Z,79.70
2019-03-18T05:06:59.178Z,79.70
2019-03-18T05:09:34.277Z,79.40
2019-03-18T05:12:09.449Z,79.00
2019-03-18T05:14:44.469Z,79.10
2019-03-18T05:17:26.484Z,79.20
2019-03-18T05:19:56.789Z,79.40
2019-03-18T05:22:31.807Z,79.40
2019-03-18T05:25:09.587Z,78.80
2019-03-18T05:27:45.587Z,78.90
2019-03-18T05:30:21.175Z,78.80
2019-03-18T05:32:56.202Z,78.40
2019-03-18T05:35:31.215Z,77.70
2019-03-18T05:38:07.367Z,78.00
2019-03-18T05:40:42.386Z,77.80
2019-03-18T05:43:18.316Z,77.20
2019-03-18T05:45:53.705Z,77.40
2019-03-18T05:48:28.816Z,77.40
2019-03-18T05:51:03.892Z,77.60
2019-03-18T05:53:39.000Z,77.20
2019-03-18T05:56:14.021Z,77.00
2019-03-18T05:58:49.057Z,76.90
2019-03-18T06:01:24.064Z,77.10
2019-03-18T06:04:00.150Z,77.20
2019-03-18T06:06:35.195Z,77.50
2019-03-18T06:09:10.347Z,77.20
2019-03-18T06:11:45.371Z,77.40
2019-03-18T06:14:20.466Z,77.40
2019-03-18T06:16:55.867Z,77.10
2019-03-18T06:19:31.518Z,77.00
2019-03-18T06:22:06.561Z,77.40
2019-03-18T06:24:42.811Z,77.60
2019-03-18T06:27:18.713Z,77.50
2019-03-18T06:29:53.743Z,77.50
2019-03-18T06:32:28.767Z,77.40
2019-03-18T06:35:04.556Z,77.50
2019-03-18T06:37:40.622Z,77.90
2019-03-18T06:40:16.552Z,77.70
2019-03-18T06:42:51.952Z,77.30
2019-03-18T06:45:26.963Z,77.20
2019-03-18T06:48:05.110Z,77.00
2019-03-18T06:50:38.710Z,76.60
2019-03-18T06:53:15.066Z,76.60
2019-03-18T06:55:50.087Z,76.10
2019-03-18T06:58:25.721Z,75.60
2019-03-18T07:01:00.730Z,75.60
2019-03-18T07:03:36.227Z,75.60
2019-03-18T07:06:11.238Z,75.20
2019-03-18T07:08:46.266Z,74.40
2019-03-18T07:11:21.288Z,73.80
2019-03-18T07:13:56.406Z,73.50
2019-03-18T07:16:32.426Z,73.20
2019-03-18T07:19:07.558Z,72.90
2019-03-18T07:21:42.561Z,72.40
2019-03-18T07:24:17.618Z,71.90
2019-03-18T07:26:54.007Z,71.30
2019-03-18T07:29:29.350Z,71.00
2019-03-18T07:32:05.621Z,70.10
2019-03-18T07:34:41.974Z,70.20
2019-03-18T07:37:17.714Z,70.90
2019-03-18T07:39:52.741Z,71.10
2019-03-18T07:42:27.783Z,71.20
2019-03-18T07:45:03.148Z,71.00
2019-03-18T07:47:40.559Z,71.20
2019-03-18T07:50:16.072Z,71.50
2019-03-18T07:52:51.074Z,71.00
2019-03-18T07:55:26.103Z,70.90
2019-03-18T07:58:01.495Z,70.90
2019-03-18T08:00:37.089Z,71.10
2019-03-18T08:03:13.410Z,71.00
2019-03-18T08:05:50.895Z,70.80
2019-03-18T08:08:26.618Z,70.50
2019-03-18T08:11:01.741Z,70.40
2019-03-18T08:13:36.769Z,70.40
2019-03-18T08:16:11.782Z,70.40
2019-03-18T08:18:47.998Z,70.20
2019-03-18T08:21:23.010Z,70.10
2019-03-18T08:23:58.888Z,69.90
2019-03-18T08:26:33.974Z,70.20
2019-03-18T08:29:09.299Z,70.00
2019-03-18T08:31:45.650Z,69.30
2019-03-18T08:34:21.921Z,69.30
2019-03-18T08:36:57.648Z,68.90
2019-03-18T08:39:32.718Z,68.50
2019-03-18T08:42:08.148Z,68.60
2019-03-18T08:44:43.153Z,68.40
2019-03-18T08:52:29.528Z,68.40
2019-03-18T08:55:06.626Z,67.70
2019-03-18T08:57:41.972Z,67.90
2019-03-18T09:00:17.934Z,67.60
2019-03-18T09:02:56.253Z,67.40
2019-03-18T09:05:30.943Z,66.90
2019-03-18T09:08:06.504Z,67.00
2019-03-18T09:10:41.499Z,66.90
2019-03-18T09:13:16.519Z,66.70
2019-03-18T09:15:51.642Z,66.30
2019-03-18T09:18:26.934Z,66.00
2019-03-18T09:21:02.702Z,66.20
2019-03-18T09:23:38.349Z,66.40
2019-03-18T09:26:13.348Z,66.30
2019-03-18T09:28:48.389Z,66.30
2019-03-18T09:31:23.507Z,66.60
2019-03-18T09:33:58.750Z,67.00
2019-03-18T09:36:33.967Z,66.40
2019-03-18T09:39:08.990Z,63.50
2019-03-18T09:49:27.680Z,53.20
2019-03-18T09:52:03.842Z,53.20
2019-03-18T09:54:39.186Z,54.80
2019-03-18T10:07:33.962Z,61.80
2019-03-18T10:12:44.540Z,64.00
2019-03-18T10:15:22.000Z,63.80
2019-03-18T10:17:57.361Z,63.80
2019-03-18T10:20:32.692Z,64.10
2019-03-18T10:23:08.393Z,64.20
2019-03-18T10:25:43.695Z,64.60
2019-03-18T10:33:28.606Z,64.10
2019-03-18T10:36:04.037Z,63.70
2019-03-18T10:38:39.382Z,64.30
2019-03-18T10:41:14.490Z,64.20
2019-03-18T10:46:26.470Z,58.80
2019-03-18T10:49:03.281Z,55.20
2019-03-18T10:51:38.421Z,53.90
2019-03-18T10:54:13.886Z,51.80
2019-03-18T10:59:23.879Z,53.20
2019-03-18T11:01:58.912Z,54.10
2019-03-18T11:04:33.948Z,56.60
2019-03-18T11:07:08.984Z,56.90
2019-03-18T11:09:44.333Z,57.50
2019-03-18T11:12:22.105Z,58.30
2019-03-18T11:14:57.474Z,60.30
2019-03-18T11:20:10.094Z,64.60
2019-03-18T11:22:45.188Z,67.50
2019-03-18T11:27:54.834Z,71.30
2019-03-18T11:30:29.860Z,72.60
2019-03-18T11:33:04.882Z,72.30
2019-03-18T11:35:39.907Z,72.00
2019-03-18T11:38:16.154Z,64.10
2019-03-18T11:40:51.441Z,56.70
2019-03-18T11:43:26.838Z,51.90
2019-03-18T11:46:01.973Z,47.80
2019-03-18T11:48:39.309Z,44.90
2019-03-18T11:51:14.360Z,41.20
2019-03-18T11:53:49.866Z,40.80
2019-03-18T11:56:25.428Z,40.10
2019-03-18T11:59:00.554Z,41.30
2019-03-18T12:01:35.605Z,41.30
2019-03-18T12:04:12.667Z,43.20
2019-03-18T12:06:47.682Z,45.90
2019-03-18T12:09:22.755Z,49.00
2019-03-18T12:11:58.741Z,51.40
2019-03-18T12:14:34.330Z,52.60
2019-03-18T12:17:10.261Z,51.40
2019-03-18T12:19:45.729Z,50.50
2019-03-18T12:22:21.991Z,50.00
2019-03-18T12:24:57.026Z,48.20
2019-03-18T12:27:32.387Z,44.60
2019-03-18T12:30:22.838Z,41.00
2019-03-18T12:32:58.806Z,36.80
2019-03-18T12:35:33.826Z,34.90
2019-03-18T12:38:16.835Z,34.10
2019-03-18T12:40:55.086Z,35.80
2019-03-18T12:43:32.070Z,39.10
2019-03-18T12:46:07.336Z,42.80
2019-03-18T12:48:43.354Z,46.70
2019-03-18T12:51:19.313Z,51.00
2019-03-18T12:53:55.426Z,58.00
2019-03-18T12:56:30.455Z,62.90
2019-03-18T13:01:42.283Z,67.70
2019-03-18T13:04:17.314Z,67.50
2019-03-18T13:06:52.354Z,68.60
2019-03-18T13:12:01.894Z,68.90
2019-03-18T13:14:36.933Z,62.80
2019-03-18T13:19:48.809Z,49.40
2019-03-18T13:22:23.867Z,46.30
2019-03-18T13:24:59.867Z,41.10
2019-03-18T13:32:52.214Z,38.30
2019-03-18T13:35:31.668Z,37.60
2019-03-18T13:38:08.100Z,37.40
2019-03-18T13:40:46.103Z,36.50
2019-03-18T13:43:22.628Z,36.40
2019-03-18T13:45:57.664Z,40.50
2019-03-18T13:48:34.854Z,42.70
2019-03-18T13:51:20.342Z,45.70
2019-03-18T13:53:48.724Z,47.90
2019-03-18T13:56:23.857Z,51.10
2019-03-18T13:59:00.739Z,53.00
2019-03-18T14:01:35.794Z,55.90
2019-03-18T14:04:11.129Z,61.00
2019-03-18T14:06:46.166Z,65.70
2019-03-18T14:09:21.524Z,69.10
2019-03-18T14:11:56.854Z,63.50
2019-03-18T14:14:32.909Z,61.90
2019-03-18T14:17:09.182Z,58.40
2019-03-18T14:19:44.201Z,53.70
2019-03-18T14:22:20.231Z,52.40
2019-03-18T14:24:55.260Z,50.60
2019-03-18T14:27:30.556Z,48.70
2019-03-18T14:30:08.916Z,46.10
2019-03-18T14:32:54.881Z,44.30
2019-03-18T14:35:28.271Z,41.90
2019-03-18T14:38:03.611Z,38.70
2019-03-18T14:40:39.325Z,39.20
2019-03-18T14:43:14.440Z,41.60
2019-03-18T14:45:50.481Z,43.80
2019-03-18T14:48:25.589Z,42.30
2019-03-18T14:51:01.581Z,42.80
2019-03-18T14:53:39.013Z,44.60
2019-03-18T14:56:14.106Z,44.70
2019-03-18T14:58:49.171Z,45.10
2019-03-18T15:01:25.447Z,45.90
2019-03-18T15:04:00.931Z,48.50
2019-03-18T15:06:35.951Z,49.80
2019-03-18T15:09:12.521Z,50.80
2019-03-18T15:11:47.637Z,49.90
2019-03-18T15:14:22.662Z,50.40
2019-03-18T15:16:59.763Z,51.40
2019-03-18T15:19:37.071Z,52.20
2019-03-18T15:22:12.106Z,53.10
2019-03-18T15:24:47.129Z,53.30
2019-03-18T15:27:23.146Z,53.10
2019-03-18T15:29:59.082Z,53.20
2019-03-18T15:32:34.121Z,54.00
2019-03-18T15:35:10.558Z,56.00
2019-03-18T15:37:45.590Z,57.30
2019-03-18T15:40:22.282Z,58.20
2019-03-18T15:42:58.270Z,60.10
2019-03-18T15:45:33.300Z,62.10
2019-03-18T15:48:08.324Z,62.80
2019-03-18T15:50:43.725Z,63.40
2019-03-18T15:53:18.750Z,63.90
2019-03-18T15:55:54.916Z,64.50
2019-03-18T15:58:30.365Z,65.30
2019-03-18T16:01:05.706Z,66.30
2019-03-18T16:03:41.869Z,66.50
2019-03-18T16:06:16.943Z,68.00
2019-03-18T16:08:53.984Z,68.00
2019-03-18T16:11:29.346Z,69.40
2019-03-18T16:14:04.379Z,68.90
2019-03-18T16:16:39.923Z,69.60
2019-03-18T16:19:15.727Z,70.30
2019-03-18T16:21:51.812Z,70.10
2019-03-18T16:24:26.866Z,70.70
2019-03-18T16:27:03.201Z,71.50
2019-03-18T16:29:39.494Z,71.50
2019-03-18T16:32:16.972Z,71.30
2019-03-18T16:34:51.297Z,71.60
2019-03-18T16:37:26.968Z,71.60
2019-03-18T16:40:02.005Z,71.60
2019-03-18T16:42:37.094Z,71.00
2019-03-18T16:45:14.086Z,70.90
2019-03-18T16:47:49.579Z,71.00
2019-03-18T16:50:29.835Z,71.50
2019-03-18T16:53:05.178Z,70.70
2019-03-18T16:55:40.536Z,70.20
2019-03-18T16:58:16.868Z,70.70
2019-03-18T17:00:52.797Z,71.50
2019-03-18T17:03:28.170Z,71.90
2019-03-18T17:06:03.253Z,72.50
2019-03-18T17:08:38.284Z,72.30
2019-03-18T17:11:13.319Z,72.70
2019-03-18T17:13:49.547Z,72.90
2019-03-18T17:16:24.591Z,73.20
2019-03-18T17:19:00.126Z,73.60
2019-03-18T17:21:35.194Z,73.80
2019-03-18T17:26:44.379Z,75.10
2019-03-18T17:29:19.399Z,76.00
2019-03-18T17:31:54.782Z,79.10
2019-03-18T17:34:29.826Z,80.70
2019-03-18T17:37:06.113Z,81.60
2019-03-18T17:39:43.190Z,82.80
2019-03-18T17:42:19.747Z,83.30
2019-03-18T17:50:07.013Z,86.30
2019-03-18T17:52:42.252Z,87.90
2019-03-18T17:55:18.938Z,87.70
2019-03-18T17:57:53.974Z,88.80
2019-03-18T18:03:08.750Z,90.70
2019-03-18T18:05:45.186Z,90.00
2019-03-18T18:08:25.966Z,90.10
2019-03-18T18:11:02.228Z,89.70
2019-03-18T18:13:37.661Z,89.20
2019-03-18T18:16:13.126Z,89.00
2019-03-18T18:18:49.280Z,88.50
2019-03-18T18:21:24.280Z,88.40
2019-03-18T18:23:59.313Z,88.40
2019-03-18T18:29:09.341Z,88.30
2019-03-18T18:31:44.671Z,87.10
2019-03-18T18:34:19.822Z,87.00
2019-03-18T18:36:54.956Z,86.60
2019-03-18T18:39:30.280Z,86.70
2019-03-18T18:42:05.335Z,87.00
2019-03-18T18:47:14.855Z,86.30
2019-03-18T18:52:24.865Z,87.20
2019-03-18T18:54:59.888Z,86.30
2019-03-18T18:57:35.904Z,85.50
2019-03-18T19:05:21.751Z,86.00
2019-03-18T19:07:57.706Z,84.50
2019-03-18T19:10:33.001Z,84.70
2019-03-18T19:13:08.412Z,84.80
2019-03-18T19:15:44.418Z,84.20
2019-03-18T19:18:19.449Z,84.10
2019-03-18T19:20:54.942Z,83.40
2019-03-18T19:23:37.681Z,83.30
2019-03-18T19:28:43.728Z,83.20
2019-03-18T19:33:53.704Z,83.60
2019-03-18T19:39:05.715Z,83.20
2019-03-18T19:41:41.165Z,83.40
2019-03-18T19:44:16.529Z,83.20
2019-03-18T19:46:52.607Z,83.50
2019-03-18T19:49:27.736Z,83.70
2019-03-18T19:52:03.155Z,83.70
2019-03-18T19:54:38.195Z,84.20
2019-03-18T19:57:13.544Z,83.90
2019-03-18T19:59:49.043Z,83.20
2019-03-18T20:02:24.510Z,83.50
2019-03-18T20:04:59.863Z,83.30
2019-03-18T20:07:34.975Z,83.00
2019-03-18T20:10:12.447Z,83.70
2019-03-18T20:12:48.540Z,83.80
2019-03-18T20:15:24.093Z,84.40
2019-03-18T20:17:59.135Z,84.50
2019-03-18T20:23:08.996Z,85.40
2019-03-18T20:25:45.977Z,85.00
2019-03-18T20:28:21.075Z,86.20
2019-03-18T20:30:56.451Z,86.10
2019-03-18T20:33:31.796Z,86.60
2019-03-18T20:36:07.734Z,86.70
2019-03-18T20:43:53.606Z,86.10
2019-03-18T20:46:28.730Z,86.30
2019-03-18T20:49:03.746Z,86.20
2019-03-18T20:51:39.658Z,86.20
2019-03-18T20:54:15.053Z,86.00
2019-03-18T20:56:50.500Z,86.30
2019-03-18T21:02:02.193Z,86.10
2019-03-18T21:04:37.037Z,86.10
2019-03-18T21:07:12.089Z,86.40
2019-03-18T21:09:48.200Z,85.70
2019-03-18T21:12:25.506Z,85.50
2019-03-18T21:15:00.957Z,85.40
2019-03-18T21:17:37.163Z,85.50
2019-03-18T21:20:18.373Z,85.20
2019-03-18T21:22:53.466Z,85.40
2019-03-18T21:25:28.982Z,85.30
2019-03-18T21:28:04.069Z,85.60
2019-03-18T21:30:39.464Z,85.00
2019-03-18T21:33:14.490Z,84.50
2019-03-18T21:35:49.516Z,84.50
2019-03-18T21:38:25.295Z,85.30
2019-03-18T21:41:01.182Z,85.70
2019-03-18T21:43:36.195Z,85.10
2019-03-18T21:46:11.238Z,84.90
2019-03-18T21:48:47.690Z,85.10
2019-03-18T21:51:22.709Z,85.40
2019-03-18T21:53:58.094Z,85.70
2019-03-18T21:56:33.134Z,87.00
2019-03-18T21:59:08.165Z,86.20
2019-03-18T22:01:43.185Z,86.70
2019-03-18T22:04:19.138Z,86.70
2019-03-18T22:06:54.236Z,86.30
2019-03-18T22:09:29.264Z,86.20
2019-03-18T22:17:15.323Z,85.40
2019-03-18T22:19:50.458Z,85.30
2019-03-18T22:22:25.475Z,85.30
2019-03-18T22:25:00.503Z,84.90
2019-03-18T22:27:36.897Z,84.70
2019-03-18T22:30:17.302Z,84.10
2019-03-18T22:32:53.303Z,83.60
2019-03-18T22:43:12.393Z,83.60
2019-03-18T22:45:47.838Z,83.60
2019-03-18T22:48:23.897Z,83.70
2019-03-18T22:50:59.782Z,84.10
2019-03-18T22:53:35.131Z,84.50
2019-03-18T23:01:19.458Z,85.10
2019-03-18T23:03:54.473Z,85.20
2019-03-18T23:14:15.322Z,85.50
2019-03-18T23:16:50.345Z,84.60
2019-03-18T23:22:00.435Z,84.40
2019-03-18T23:27:10.074Z,84.70
2019-03-18T23:29:45.129Z,84.10
2019-03-18T23:32:21.269Z,84.00
2019-03-18T23:37:31.174Z,85.00
2019-03-18T23:40:08.128Z,84.00
2019-03-18T23:53:02.277Z,84.30
2019-03-18T23:55:37.917Z,83.70
